Time;durP1;ratioP1;P1;durP2;ratioP2;P2;SDS_P1;SDS_P2;PMS_P1;PMS_P2;Temp;Humidity;BMP_temperature;BMP_pressure;BME280_temperature;BME280_humidity;BME280_pressure;Samples;Min_cycle;Max_cycle;Signal;HPM_P1;HPM_P2
2021/12/09 00:00:13;;;;;;;6.60;4.47;;;;;;;7.17;56.56;99656.53;682703;28;1142;-89
2021/12/09 00:00:43;;;;;;;7.72;4.50;;;;;;;7.18;56.38;99659.16;685347;28;1457;-89
2021/12/09 00:01:07;;;;;;;10.63;4.70;;;;;;;7.21;56.09;99661.84;685489;28;1076;-90
2021/12/09 00:01:32;;;;;;;11.50;4.60;;;;;;;7.19;55.99;99652.25;685272;28;1236;-88
2021/12/09 00:01:52;;;;;;;14.45;5.28;;;;;;;7.19;56.35;99660.91;685473;28;1159;-90
2021/12/09 00:02:14;;;;;;;13.07;5.33;;;;;;;7.16;56.12;99645.28;685103;28;1360;-90
2021/12/09 00:02:35;;;;;;;12.07;5.40;;;;;;;7.19;55.88;99655.72;685010;28;1258;-89
2021/12/09 00:02:56;;;;;;;6.88;4.47;;;;;;;7.23;56.28;99657.56;689631;28;1649;-88
2021/12/09 00:03:17;;;;;;;6.15;4.40;;;;;;;7.13;55.56;99653.84;694068;28;1537;-89
2021/12/09 00:03:40;;;;;;;6.05;4.55;;;;;;;7.15;56.13;99645.22;689663;28;1562;-90
2021/12/09 00:04:05;;;;;;;8.10;4.78;;;;;;;7.10;56.07;99642.53;685530;28;1241;-89
2021/12/09 00:04:30;;;;;;;8.80;4.60;;;;;;;7.21;56.08;99655.75;685034;28;1273;-90
2021/12/09 00:04:54;;;;;;;6.65;4.38;;;;;;;7.12;55.85;99646.91;689503;28;1232;-90
2021/12/09 00:05:17;;;;;;;7.25;4.47;;;;;;;7.17;55.66;99640.97;685257;28;1363;-89
2021/12/09 00:05:41;;;;;;;7.43;4.57;;;;;;;7.17;56.14;99643.56;681254;28;1348;-90
2021/12/09 00:06:05;;;;;;;7.57;4.45;;;;;;;7.19;55.95;99649.66;687842;28;1324;-89
2021/12/09 00:06:28;;;;;;;5.70;4.18;;;;;;;7.17;55.79;99656.53;688118;28;1363;-90
2021/12/09 00:06:49;;;;;;;5.80;4.10;;;;;;;7.15;56.01;99647.81;686150;28;1416;-89
2021/12/09 00:07:10;;;;;;;5.65;3.90;;;;;;;7.15;55.89;99643.53;690742;28;1299;-89
2021/12/09 00:07:30;;;;;;;7.57;4.10;;;;;;;7.05;55.94;99637.22;683126;28;1212;-89
2021/12/09 00:07:53;;;;;;;8.70;4.28;;;;;;;7.03;56.18;99638.03;686231;28;1914;-89
2021/12/09 00:08:14;;;;;;;14.05;4.38;;;;;;;7.01;56.50;99638.00;692965;28;1396;-89
2021/12/09 00:08:37;;;;;;;11.25;4.03;;;;;;;7.05;56.47;99644.16;687723;28;1734;-90
2021/12/09 00:09:07;;;;;;;9.38;4.00;;;;;;;7.06;56.14;99649.34;687237;28;1311;-89
2021/12/09 00:09:44;;;;;;;5.97;4.13;;;;;;;7.06;56.41;99656.28;683804;28;1539;-89
2021/12/09 00:10:08;;;;;;;6.50;4.00;;;;;;;7.02;56.22;99647.53;685465;28;1334;-90
2021/12/09 00:10:28;;;;;;;5.32;3.67;;;;;;;6.96;56.26;99644.78;685527;28;1378;-89
2021/12/09 00:10:49;;;;;;;5.70;3.60;;;;;;;6.91;56.70;99643.78;687345;28;1325;-89
2021/12/09 00:11:10;;;;;;;6.10;3.60;;;;;;;6.89;56.50;99641.19;688121;28;1295;-89
2021/12/09 00:11:30;;;;;;;6.00;3.63;;;;;;;6.84;56.33;99641.06;685508;28;915;-89
2021/12/09 00:11:51;;;;;;;5.63;3.90;;;;;;;6.84;56.63;99642.78;686457;28;1285;-89
2021/12/09 00:12:12;;;;;;;6.82;4.15;;;;;;;6.91;56.62;99659.34;687980;28;1379;-89
2021/12/09 00:12:33;;;;;;;7.50;4.32;;;;;;;6.87;56.31;99650.63;682820;28;1366;-89
2021/12/09 00:12:53;;;;;;;7.88;4.53;;;;;;;6.89;56.75;99655.84;684875;28;1121;-89
2021/12/09 00:13:14;;;;;;;7.77;4.60;;;;;;;6.81;56.76;99643.56;690619;28;1256;-89
2021/12/09 00:13:35;;;;;;;7.95;4.95;;;;;;;6.87;56.91;99649.75;690659;28;1432;-90
2021/12/09 00:13:57;;;;;;;9.40;4.88;;;;;;;6.77;56.67;99633.09;688829;28;1556;-90
2021/12/09 00:14:26;;;;;;;9.30;4.90;;;;;;;6.78;56.76;99638.31;685320;28;1204;-90
2021/12/09 00:14:46;;;;;;;6.45;3.97;;;;;;;6.79;56.69;99645.25;678773;28;1297;-89
2021/12/09 00:15:08;;;;;;;5.70;3.80;;;;;;;6.75;56.48;99635.63;679729;29;1295;-89
2021/12/09 00:15:28;;;;;;;5.88;3.70;;;;;;;6.71;56.18;99636.41;690655;28;1454;-89
2021/12/09 00:15:49;;;;;;;5.30;3.70;;;;;;;6.68;56.85;99631.09;691614;28;1257;-90
2021/12/09 00:16:10;;;;;;;4.80;3.47;;;;;;;6.71;56.67;99636.41;688061;28;1403;-89
2021/12/09 00:16:30;;;;;;;6.90;3.60;;;;;;;6.68;56.49;99637.16;685221;28;1262;-88
2021/12/09 00:16:54;;;;;;;9.63;4.37;;;;;;;6.73;56.50;99647.69;687945;28;1263;-89
2021/12/09 00:17:14;;;;;;;8.75;4.20;;;;;;;6.68;56.76;99636.28;682685;29;1270;-90
2021/12/09 00:17:35;;;;;;;7.95;4.00;;;;;;;6.73;56.76;99649.41;682986;28;1307;-90
2021/12/09 00:18:10;;;;;;;8.88;4.00;;;;;;;6.69;57.10;99640.66;680499;29;1233;-90
2021/12/09 00:18:31;;;;;;;8.18;4.28;;;;;;;6.70;56.90;99635.47;690446;28;1222;-89
2021/12/09 00:18:51;;;;;;;6.40;4.10;;;;;;;6.70;56.57;99639.81;690530;28;1591;-89
2021/12/09 00:19:12;;;;;;;6.37;4.03;;;;;;;6.64;57.24;99645.69;685049;28;1064;-89
2021/12/09 00:19:34;;;;;;;7.80;4.20;;;;;;;6.68;56.87;99644.94;687881;28;1077;-90
2021/12/09 00:19:55;;;;;;;7.30;4.43;;;;;;;6.68;56.88;99636.28;688758;28;1287;-89
2021/12/09 00:20:16;;;;;;;7.65;4.68;;;;;;;6.69;57.14;99638.06;685344;28;1220;-90
2021/12/09 00:20:36;;;;;;;7.10;4.50;;;;;;;6.71;56.89;99644.19;690683;28;1183;-90
2021/12/09 00:20:57;;;;;;;9.93;3.83;;;;;;;6.74;57.12;99643.38;690518;28;1215;-89
2021/12/09 00:21:18;;;;;;;7.88;3.50;;;;;;;6.74;57.02;99641.66;693343;28;1151;-90
2021/12/09 00:21:38;;;;;;;8.90;3.63;;;;;;;6.73;56.94;99639.91;686124;28;1200;-89
2021/12/09 00:21:59;;;;;;;5.90;3.90;;;;;;;6.72;56.82;99638.16;693415;28;1091;-88
2021/12/09 00:22:20;;;;;;;7.93;4.40;;;;;;;6.73;56.98;99636.44;690761;28;1442;-89
2021/12/09 00:22:42;;;;;;;6.10;4.35;;;;;;;6.81;56.41;99645.31;685283;28;1213;-89
2021/12/09 00:23:02;;;;;;;6.47;4.38;;;;;;;6.72;56.49;99632.97;682650;29;1399;-89
2021/12/09 00:23:23;;;;;;;5.00;4.00;;;;;;;6.75;56.59;99643.41;684824;28;1698;-90
2021/12/09 00:23:43;;;;;;;6.32;4.20;;;;;;;6.72;56.63;99638.16;685432;28;2345;-89
2021/12/09 00:24:05;;;;;;;6.20;4.30;;;;;;;6.72;56.77;99643.34;687865;28;1271;-89
2021/12/09 00:24:26;;;;;;;6.95;4.40;;;;;;;6.72;56.54;99638.16;690314;28;2273;-89
2021/12/09 00:24:46;;;;;;;5.15;4.03;;;;;;;6.67;56.70;99640.59;686168;28;1396;-89
2021/12/09 00:25:07;;;;;;;5.20;4.10;;;;;;;6.72;56.86;99648.53;685226;28;1301;-89
2021/12/09 00:25:28;;;;;;;4.75;4.00;;;;;;;6.68;56.74;99644.94;690758;28;1573;-90
2021/12/09 00:25:48;;;;;;;4.30;3.80;;;;;;;6.73;56.65;99647.69;690655;28;1278;-89
2021/12/09 00:26:09;;;;;;;4.85;3.80;;;;;;;6.67;56.77;99639.72;687969;28;1397;-89
2021/12/09 00:26:30;;;;;;;6.00;3.83;;;;;;;6.71;56.96;99642.44;687839;28;1472;-89
2021/12/09 00:26:50;;;;;;;7.37;4.10;;;;;;;6.67;56.68;99644.88;687536;28;1188;-90
2021/12/09 00:27:11;;;;;;;7.85;4.60;;;;;;;6.64;56.64;99632.72;685322;28;1437;-90
2021/12/09 00:27:32;;;;;;;6.68;4.50;;;;;;;6.77;56.85;99646.03;685405;28;1336;-89
2021/12/09 00:27:52;;;;;;;6.15;4.47;;;;;;;6.68;56.76;99639.75;688020;28;1918;-89
2021/12/09 00:28:13;;;;;;;6.50;4.60;;;;;;;6.67;56.41;99647.47;690185;28;1241;-89
2021/12/09 00:28:34;;;;;;;8.15;4.63;;;;;;;6.71;56.90;99642.44;688036;28;1198;-90
2021/12/09 00:28:56;;;;;;;11.43;4.68;;;;;;;6.65;56.56;99642.28;687084;28;1322;-89
2021/12/09 00:29:17;;;;;;;11.90;4.57;;;;;;;6.61;56.74;99637.84;689508;28;885;-89
2021/12/09 00:29:38;;;;;;;9.15;4.57;;;;;;;6.68;57.15;99652.72;683368;28;831;-89
2021/12/09 00:29:58;;;;;;;10.20;4.50;;;;;;;6.63;56.82;99632.69;685640;28;1139;-89
2021/12/09 00:30:20;;;;;;;10.52;4.38;;;;;;;6.62;56.85;99636.13;682605;29;1129;-89
2021/12/09 00:30:41;;;;;;;10.90;4.15;;;;;;;6.65;56.69;99639.69;686568;28;816;-89
2021/12/09 00:31:01;;;;;;;6.27;3.70;;;;;;;6.65;56.98;99636.22;693032;28;1447;-89
2021/12/09 00:31:41;;;;;;;5.53;3.55;;;;;;;6.64;57.19;99650.00;693441;28;1379;-89
2021/12/09 00:32:02;;;;;;;7.45;4.13;;;;;;;6.58;56.71;99640.38;687855;28;1360;-89
2021/12/09 00:32:23;;;;;;;9.02;4.55;;;;;;;6.57;56.89;99643.78;682822;28;866;-89
2021/12/09 00:32:43;;;;;;;10.60;4.70;;;;;;;6.58;56.99;99638.63;687869;28;1309;-89
2021/12/09 00:33:16;;;;;;;7.78;4.35;;;;;;;6.55;57.01;99635.97;688038;28;1121;-89
2021/12/09 00:33:42;;;;;;;6.80;4.10;;;;;;;6.52;56.81;99635.00;685833;28;1398;-90
2021/12/09 00:34:03;;;;;;;7.30;3.90;;;;;;;6.53;57.02;99629.88;688844;28;1331;-89
2021/12/09 00:34:30;;;;;;;8.57;3.85;;;;;;;6.61;57.16;99649.91;685429;28;1210;-89
2021/12/09 00:34:52;;;;;;;9.82;4.10;;;;;;;6.60;57.19;99642.97;686701;28;1424;-89
2021/12/09 00:35:15;;;;;;;10.90;4.10;;;;;;;6.64;56.88;99643.09;690347;28;1279;-89
2021/12/09 00:35:45;;;;;;;8.70;4.00;;;;;;;6.71;57.12;99647.63;690775;28;827;-89
2021/12/09 00:36:06;;;;;;;7.88;3.80;;;;;;;6.68;56.85;99638.88;685139;28;1339;-89
2021/12/09 00:36:31;;;;;;;7.63;3.83;;;;;;;6.68;57.12;99637.16;685334;28;1312;-88
2021/12/09 00:36:58;;;;;;;6.10;3.88;;;;;;;6.67;56.69;99637.13;687937;28;1244;-89
2021/12/09 00:37:29;;;;;;;5.70;3.90;;;;;;;6.71;56.83;99642.44;685176;28;1317;-89
2021/12/09 00:38:06;;;;;;;5.63;4.30;;;;;;;6.73;56.79;99647.69;688316;28;1303;-88
2021/12/09 00:38:39;;;;;;;5.63;3.88;;;;;;;6.68;56.28;99636.28;685328;28;1198;-90
2021/12/09 00:39:00;;;;;;;5.68;3.70;;;;;;;6.77;56.69;99640.84;683637;28;1140;-87
2021/12/09 00:39:20;;;;;;;5.38;4.00;;;;;;;6.71;56.84;99637.25;682268;28;1540;-88
2021/12/09 00:39:43;;;;;;;4.57;3.95;;;;;;;6.74;56.66;99646.84;686396;28;1504;-89
2021/12/09 00:40:06;;;;;;;8.18;4.30;;;;;;;6.75;56.42;99643.41;687968;28;1370;-90
2021/12/09 00:40:27;;;;;;;8.43;3.88;;;;;;;6.74;56.77;99641.66;687967;28;1595;-89
2021/12/09 00:40:49;;;;;;;7.95;3.78;;;;;;;6.83;56.26;99652.25;692603;28;1240;-89
2021/12/09 00:41:13;;;;;;;6.20;3.60;;;;;;;6.79;56.27;99647.84;685347;28;1376;-89
2021/12/09 00:41:34;;;;;;;5.80;3.95;;;;;;;6.78;56.39;99648.69;685276;28;1244;-90
2021/12/09 00:41:55;;;;;;;6.45;4.13;;;;;;;6.85;56.33;99640.22;683655;28;1381;-90
2021/12/09 00:42:53;;;;;;;6.43;4.22;;;;;;;6.97;56.30;99663.00;687023;28;1251;-89
2021/12/09 00:43:22;;;;;;;4.75;4.13;;;;;;;6.89;55.87;99646.38;685297;28;1448;-89
2021/12/09 00:43:43;;;;;;;6.38;4.03;;;;;;;6.94;56.56;99644.75;685140;28;1333;-89
2021/12/09 00:44:05;;;;;;;6.00;3.90;;;;;;;6.91;55.88;99649.88;687939;28;1108;-90
2021/12/09 00:44:25;;;;;;;9.25;4.20;;;;;;;6.89;56.51;99645.47;690600;28;1437;-89
2021/12/09 00:44:46;;;;;;;8.68;4.30;;;;;;;6.90;56.28;99652.41;684182;28;1210;-89
2021/12/09 00:45:07;;;;;;;9.57;4.50;;;;;;;6.90;56.35;99657.59;693208;28;1037;-89
2021/12/09 00:45:28;;;;;;;7.03;4.22;;;;;;;6.85;56.46;99645.41;693384;28;1243;-88
2021/12/09 00:45:52;;;;;;;6.80;4.00;;;;;;;6.89;56.19;99642.88;687402;28;1272;-89
2021/12/09 00:46:13;;;;;;;6.97;4.22;;;;;;;6.90;56.06;99650.72;685040;28;1395;-89
2021/12/09 00:46:33;;;;;;;5.10;4.15;;;;;;;6.86;56.31;99646.28;690547;28;1231;-89
2021/12/09 00:46:54;;;;;;;4.80;3.90;;;;;;;6.92;56.38;99656.81;689718;28;1052;-90
2021/12/09 00:47:14;;;;;;;5.97;4.20;;;;;;;6.88;56.29;99649.78;693946;28;1303;-91
2021/12/09 00:47:39;;;;;;;8.20;4.40;;;;;;;7.01;56.14;99671.72;689207;28;1475;-89
2021/12/09 00:48:00;;;;;;;8.20;4.40;;;;;;;6.98;56.20;99656.06;688457;28;1558;-89
2021/12/09 00:48:20;;;;;;;7.37;4.33;;;;;;;7.02;56.57;99663.09;688431;28;1243;-89
2021/12/09 00:48:42;;;;;;;6.05;3.90;;;;;;;7.02;56.16;99670.88;692444;28;1176;-89
2021/12/09 00:49:02;;;;;;;5.50;3.70;;;;;;;7.04;56.39;99666.59;685696;28;1304;-90
2021/12/09 00:49:23;;;;;;;6.20;3.83;;;;;;;6.99;56.06;99656.13;680237;29;985;-89
2021/12/09 00:49:51;;;;;;;7.47;3.92;;;;;;;6.98;56.19;99651.78;683110;28;1306;-89
2021/12/09 00:50:11;;;;;;;8.40;4.32;;;;;;;7.05;56.13;99668.34;683337;28;1564;-89
2021/12/09 00:50:32;;;;;;;8.45;4.45;;;;;;;6.97;56.26;99651.72;688904;28;815;-89
2021/12/09 00:50:55;;;;;;;7.22;4.28;;;;;;;7.03;56.16;99664.84;692564;28;1256;-89
2021/12/09 00:51:16;;;;;;;6.65;4.35;;;;;;;7.03;56.27;99659.66;689098;28;1776;-89
2021/12/09 00:51:36;;;;;;;6.10;4.20;;;;;;;7.03;55.84;99659.66;685800;28;1517;-89
2021/12/09 00:52:17;;;;;;;6.70;4.50;;;;;;;7.04;56.05;99651.03;685477;28;1383;-90
2021/12/09 00:52:38;;;;;;;6.65;4.53;;;;;;;7.07;55.95;99656.28;681621;29;1644;-89
2021/12/09 00:52:58;;;;;;;7.07;4.47;;;;;;;7.06;55.76;99654.53;684496;28;1223;-90
2021/12/09 00:53:19;;;;;;;7.15;4.25;;;;;;;7.07;55.84;99661.47;682658;29;1284;-90
2021/12/09 00:53:41;;;;;;;8.68;4.15;;;;;;;6.99;56.22;99643.16;687822;28;1395;-89
2021/12/09 00:54:02;;;;;;;8.02;4.10;;;;;;;7.01;55.79;99650.09;685309;28;1351;-89
2021/12/09 00:54:22;;;;;;;8.10;4.20;;;;;;;7.03;55.93;99656.19;687647;28;1497;-89
2021/12/09 00:54:44;;;;;;;7.73;4.47;;;;;;;7.09;55.76;99659.81;682670;29;1218;-90
2021/12/09 00:55:07;;;;;;;6.78;4.40;;;;;;;7.07;56.13;99656.28;684929;28;2510;-88
2021/12/09 00:55:27;;;;;;;5.55;4.05;;;;;;;7.08;56.23;99655.47;687807;28;1280;-89
2021/12/09 00:55:48;;;;;;;4.33;3.90;;;;;;;7.14;55.36;99657.34;686528;28;1247;-89
2021/12/09 00:56:10;;;;;;;4.80;3.90;;;;;;;7.15;55.89;99658.19;687457;28;1358;-89
2021/12/09 00:56:32;;;;;;;8.27;4.32;;;;;;;7.15;55.60;99658.19;690668;28;1431;-89
2021/12/09 00:56:53;;;;;;;9.50;4.50;;;;;;;7.15;55.76;99658.19;692184;28;1354;-89
2021/12/09 00:57:32;;;;;;;9.43;4.60;;;;;;;7.12;55.75;99666.78;687936;28;1245;-89
2021/12/09 00:57:52;;;;;;;7.35;4.20;;;;;;;7.08;55.78;99662.38;687374;28;1594;-90
2021/12/09 00:58:13;;;;;;;6.43;4.15;;;;;;;6.97;55.80;99655.22;690648;28;1305;-89
2021/12/09 00:58:34;;;;;;;5.30;4.30;;;;;;;6.99;55.79;99657.81;688581;28;1845;-90
2021/12/09 00:58:55;;;;;;;5.17;4.43;;;;;;;6.99;56.01;99657.81;686707;28;1193;-89
2021/12/09 00:59:16;;;;;;;6.25;4.38;;;;;;;6.96;55.87;99656.06;690211;28;1141;-89
2021/12/09 00:59:37;;;;;;;6.18;4.28;;;;;;;6.98;55.91;99656.06;682918;28;1210;-89
2021/12/09 00:59:59;;;;;;;8.57;4.10;;;;;;;6.94;56.01;99654.25;690557;28;1208;-89
2021/12/09 01:00:21;;;;;;;7.60;4.10;;;;;;;6.97;56.12;99660.41;687674;28;1416;-89
2021/12/09 01:00:41;;;;;;;7.47;4.38;;;;;;;6.92;56.15;99659.41;687501;28;1717;-88
2021/12/09 01:01:04;;;;;;;6.93;4.37;;;;;;;6.91;56.14;99659.34;689416;28;1489;-89
2021/12/09 01:01:27;;;;;;;7.03;4.10;;;;;;;6.96;56.24;99669.03;686152;28;1421;-89
2021/12/09 01:01:48;;;;;;;8.20;4.22;;;;;;;6.88;55.99;99665.34;686506;28;1349;-89
2021/12/09 01:02:10;;;;;;;6.53;4.45;;;;;;;6.91;56.17;99664.53;685047;28;1113;-89
2021/12/09 01:02:30;;;;;;;7.03;4.88;;;;;;;6.95;56.45;99672.44;690503;28;1493;-89
2021/12/09 01:02:51;;;;;;;6.40;4.60;;;;;;;6.91;56.33;99667.13;689166;28;1219;-89
2021/12/09 01:03:12;;;;;;;8.73;4.30;;;;;;;6.90;56.23;99667.97;691280;28;1211;-89
2021/12/09 01:03:35;;;;;;;9.17;4.20;;;;;;;6.91;56.70;99670.63;693469;28;1344;-89
2021/12/09 01:03:55;;;;;;;8.48;4.20;;;;;;;6.88;56.53;99669.66;691656;28;1310;-90
2021/12/09 01:04:16;;;;;;;5.88;4.10;;;;;;;6.86;56.70;99664.41;687045;28;1702;-89
2021/12/09 01:04:37;;;;;;;6.85;4.13;;;;;;;6.84;56.32;99659.22;682726;28;1298;-90
2021/12/09 01:04:58;;;;;;;7.78;4.00;;;;;;;6.88;56.60;99667.06;685654;28;1203;-89
2021/12/09 01:05:19;;;;;;;8.15;4.10;;;;;;;6.93;56.55;99675.84;682610;29;1314;-90
2021/12/09 01:05:40;;;;;;;8.02;4.00;;;;;;;6.83;56.20;99667.81;690707;28;1293;-89
2021/12/09 01:06:02;;;;;;;6.98;4.00;;;;;;;6.92;56.53;99676.66;684856;28;1492;-89
2021/12/09 01:06:23;;;;;;;7.10;3.97;;;;;;;6.88;56.37;99661.88;687793;28;1455;-89
2021/12/09 01:06:43;;;;;;;5.97;4.00;;;;;;;6.89;56.31;99671.41;684965;28;1278;-87
2021/12/09 01:07:05;;;;;;;6.25;4.25;;;;;;;6.91;56.23;99664.53;685270;28;1251;-90
2021/12/09 01:07:25;;;;;;;6.90;4.20;;;;;;;6.90;56.61;99667.97;682663;29;1518;-90
2021/12/09 01:07:46;;;;;;;7.10;4.30;;;;;;;6.88;56.34;99664.47;686650;28;1899;-90
2021/12/09 01:08:07;;;;;;;6.67;4.07;;;;;;;6.96;56.45;99678.50;685213;28;1296;-89
2021/12/09 01:08:27;;;;;;;5.38;3.95;;;;;;;6.90;56.73;99673.16;685110;28;886;-89
2021/12/09 01:08:48;;;;;;;7.13;4.07;;;;;;;6.87;56.78;99666.19;687694;28;1307;-89
2021/12/09 01:09:08;;;;;;;7.93;4.17;;;;;;;6.87;56.58;99661.00;682489;29;1178;-90
2021/12/09 01:09:29;;;;;;;8.17;4.30;;;;;;;6.84;56.33;99655.72;684765;28;1238;-89
2021/12/09 01:09:49;;;;;;;8.18;4.22;;;;;;;6.90;56.79;99665.38;682700;28;1264;-89
2021/12/09 01:10:13;;;;;;;8.30;4.33;;;;;;;6.95;56.24;99676.75;685146;28;1121;-89
2021/12/09 01:10:34;;;;;;;9.68;4.20;;;;;;;6.90;56.58;99671.47;685291;28;1373;-89
2021/12/09 01:10:55;;;;;;;8.38;4.10;;;;;;;6.95;55.97;99685.41;687818;28;1265;-89
2021/12/09 01:11:15;;;;;;;6.82;3.95;;;;;;;6.91;56.80;99667.13;685224;28;1424;-89
2021/12/09 01:11:36;;;;;;;7.45;4.43;;;;;;;6.90;56.30;99667.97;683077;28;1382;-90
2021/12/09 01:11:57;;;;;;;9.30;4.77;;;;;;;6.88;56.76;99664.47;685132;28;1351;-89
2021/12/09 01:12:17;;;;;;;9.57;4.60;;;;;;;6.89;56.22;99672.31;682597;29;1205;-90
2021/12/09 01:12:38;;;;;;;7.55;4.32;;;;;;;6.92;56.90;99671.47;685211;28;1934;-90
2021/12/09 01:12:59;;;;;;;6.65;4.30;;;;;;;6.95;56.54;99671.56;687958;28;1187;-89
2021/12/09 01:13:20;;;;;;;7.17;4.60;;;;;;;6.83;56.77;99660.03;687558;28;1237;-89
2021/12/09 01:13:42;;;;;;;7.80;4.50;;;;;;;6.89;56.57;99666.22;683608;28;1249;-89
2021/12/09 01:14:02;;;;;;;9.57;4.40;;;;;;;6.89;56.66;99667.13;687799;28;1203;-89
2021/12/09 01:14:23;;;;;;;9.87;4.50;;;;;;;6.93;56.59;99673.25;687851;28;1247;-89
2021/12/09 01:14:44;;;;;;;9.20;4.50;;;;;;;6.91;56.81;99670.63;686516;28;1264;-88
2021/12/09 01:15:07;;;;;;;8.73;4.57;;;;;;;6.91;56.05;99670.63;685132;28;1225;-89
2021/12/09 01:15:28;;;;;;;8.05;4.60;;;;;;;6.89;56.65;99669.72;687840;28;1283;-89
2021/12/09 01:15:49;;;;;;;9.20;4.93;;;;;;;6.92;56.48;99668.88;687726;28;1335;-88
2021/12/09 01:16:11;;;;;;;8.60;5.00;;;;;;;6.87;56.52;99667.91;685138;28;1222;-89
2021/12/09 01:16:32;;;;;;;8.98;4.55;;;;;;;6.89;56.26;99667.13;687728;28;1431;-90
2021/12/09 01:16:52;;;;;;;7.73;4.30;;;;;;;6.91;56.41;99670.63;685101;28;1311;-90
2021/12/09 01:17:13;;;;;;;6.80;4.10;;;;;;;6.85;56.65;99660.97;686247;28;1157;-89
2021/12/09 01:17:43;;;;;;;4.75;3.90;;;;;;;6.96;56.16;99673.31;685024;28;1860;-89
2021/12/09 01:18:04;;;;;;;5.20;3.90;;;;;;;6.88;56.43;99664.47;690579;28;1148;-89
2021/12/09 01:18:25;;;;;;;6.00;3.92;;;;;;;6.87;56.36;99675.69;688243;28;1227;-90
2021/12/09 01:18:46;;;;;;;5.80;4.30;;;;;;;6.90;56.23;99679.25;689056;28;1567;-89
2021/12/09 01:19:06;;;;;;;6.18;4.30;;;;;;;6.92;56.24;99671.47;685244;28;1257;-89
2021/12/09 01:19:27;;;;;;;7.57;4.30;;;;;;;6.99;56.11;99674.28;684499;28;1239;-88
2021/12/09 01:19:48;;;;;;;8.18;4.50;;;;;;;7.04;56.35;99673.50;689117;28;1293;-89
2021/12/09 01:20:10;;;;;;;8.30;4.50;;;;;;;7.08;56.14;99677.94;685307;28;1104;-90
2021/12/09 01:20:31;;;;;;;6.50;4.40;;;;;;;7.04;55.91;99674.38;685117;28;1513;-89
2021/12/09 01:20:52;;;;;;;5.68;4.22;;;;;;;6.95;56.17;99661.19;685208;28;1317;-89
2021/12/09 01:21:13;;;;;;;5.30;4.20;;;;;;;6.89;56.15;99671.41;684988;28;1248;-89
2021/12/09 01:21:33;;;;;;;5.15;4.05;;;;;;;6.85;56.20;99660.97;682401;28;1207;-89
2021/12/09 01:21:54;;;;;;;4.85;3.80;;;;;;;6.88;56.22;99680.03;687826;28;1235;-90
2021/12/09 01:22:14;;;;;;;5.90;3.77;;;;;;;6.81;56.43;99666.91;689790;28;1265;-90
2021/12/09 01:22:40;;;;;;;5.55;3.80;;;;;;;6.85;56.31;99668.75;690939;28;1232;-90
2021/12/09 01:23:07;;;;;;;6.10;4.13;;;;;;;6.84;56.25;99674.78;690610;28;1156;-89
2021/12/09 01:23:27;;;;;;;6.63;4.45;;;;;;;6.86;56.25;99667.03;687989;28;1246;-89
2021/12/09 01:23:48;;;;;;;7.50;4.60;;;;;;;6.88;56.29;99685.22;683671;28;1281;-89
2021/12/09 01:24:09;;;;;;;9.68;4.53;;;;;;;6.84;56.10;99674.78;685094;28;1225;-89
2021/12/09 01:24:29;;;;;;;8.48;4.20;;;;;;;6.81;56.21;99669.50;684555;28;871;-90
2021/12/09 01:24:50;;;;;;;8.07;4.10;;;;;;;6.88;56.27;99680.88;689033;28;1305;-89
2021/12/09 01:25:14;;;;;;;9.43;4.22;;;;;;;6.81;56.63;99672.09;684604;28;1313;-89
2021/12/09 01:25:38;;;;;;;9.05;4.30;;;;;;;6.91;56.49;99687.88;687792;28;1292;-89
2021/12/09 01:26:02;;;;;;;8.90;4.70;;;;;;;6.88;56.57;99691.25;688354;28;1293;-89
2021/12/09 01:26:24;;;;;;;6.90;4.47;;;;;;;6.89;56.42;99687.88;685250;28;1337;-89
2021/12/09 01:26:47;;;;;;;7.65;4.28;;;;;;;6.86;56.35;99687.75;688095;28;1277;-89
2021/12/09 01:27:09;;;;;;;7.00;3.80;;;;;;;6.82;56.74;99680.75;685195;28;822;-89
2021/12/09 01:27:32;;;;;;;6.40;4.10;;;;;;;6.87;56.76;99686.91;684922;28;1607;-89
2021/12/09 01:27:55;;;;;;;6.28;4.25;;;;;;;6.78;56.44;99677.22;685730;28;1977;-89
2021/12/09 01:28:20;;;;;;;7.45;4.60;;;;;;;6.77;56.72;99672.88;682591;28;1140;-89
2021/12/09 01:28:52;;;;;;;6.80;4.30;;;;;;;6.80;56.32;99685.00;683193;28;1453;-88
2021/12/09 01:29:17;;;;;;;5.18;3.90;;;;;;;6.74;56.46;99675.34;684771;28;1294;-89
2021/12/09 01:29:41;;;;;;;4.72;4.00;;;;;;;6.74;56.32;99675.34;686020;28;1344;-89
2021/12/09 01:30:09;;;;;;;5.03;4.10;;;;;;;6.75;56.86;99679.69;690192;28;1293;-89
2021/12/09 01:30:30;;;;;;;6.22;4.50;;;;;;;6.76;56.45;99675.41;687846;28;970;-89
2021/12/09 01:30:59;;;;;;;6.38;4.22;;;;;;;6.75;56.56;99678.84;685989;28;1212;-89
2021/12/09 01:31:27;;;;;;;6.57;4.10;;;;;;;6.73;56.52;99678.78;685094;28;1297;-89
2021/12/09 01:32:00;;;;;;;8.07;4.50;;;;;;;6.75;56.84;99682.28;687689;28;1107;-89
2021/12/09 01:32:27;;;;;;;7.50;4.40;;;;;;;6.69;56.61;99677.81;690657;28;1339;-89
2021/12/09 01:32:51;;;;;;;7.22;4.30;;;;;;;6.72;57.13;99690.00;683094;28;1261;-89
2021/12/09 01:33:12;;;;;;;6.20;4.00;;;;;;;6.69;56.78;99685.59;687855;28;1493;-90
2021/12/09 01:33:37;;;;;;;5.47;3.72;;;;;;;6.67;56.95;99689.84;690645;28;1276;-89
2021/12/09 01:34:02;;;;;;;6.88;3.80;;;;;;;6.67;56.99;99699.34;685152;28;1250;-90
2021/12/09 01:34:24;;;;;;;8.13;4.25;;;;;;;6.60;56.87;99684.44;680056;29;1111;-90
2021/12/09 01:34:45;;;;;;;7.70;4.22;;;;;;;6.56;56.96;99679.19;683216;28;1295;-88
2021/12/09 01:35:33;;;;;;;6.63;4.40;;;;;;;6.68;57.05;99691.59;687840;28;1283;-89
2021/12/09 01:35:54;;;;;;;7.18;4.10;;;;;;;6.61;56.88;99688.78;687585;28;1417;-89
2021/12/09 01:36:16;;;;;;;7.00;4.07;;;;;;;6.64;57.06;99696.69;685176;28;1152;-90
2021/12/09 01:36:36;;;;;;;6.63;3.92;;;;;;;6.57;57.20;99683.53;687954;28;811;-90
2021/12/09 01:36:58;;;;;;;4.60;3.85;;;;;;;6.67;57.33;99696.75;685828;28;1308;-89
2021/12/09 01:37:20;;;;;;;4.85;3.85;;;;;;;6.60;56.67;99689.63;682369;29;1455;-89
2021/12/09 01:37:41;;;;;;;5.68;4.30;;;;;;;6.52;57.11;99690.31;688912;28;1303;-89
2021/12/09 01:38:10;;;;;;;6.85;4.28;;;;;;;6.52;57.23;99685.13;688164;28;1139;-89
2021/12/09 01:38:32;;;;;;;5.72;3.85;;;;;;;6.52;57.29;99695.50;682636;29;1424;-89
2021/12/09 01:38:53;;;;;;;6.47;3.90;;;;;;;6.61;56.98;99706.94;686003;28;1352;-89
2021/12/09 01:39:14;;;;;;;6.90;4.00;;;;;;;6.55;57.10;99697.28;684778;28;1238;-89
2021/12/09 01:39:35;;;;;;;8.73;4.30;;;;;;;6.53;56.98;99693.78;685023;28;1139;-90
2021/12/09 01:39:55;;;;;;;8.13;3.97;;;;;;;6.54;57.04;99692.94;685071;28;1240;-90
2021/12/09 01:40:16;;;;;;;8.68;4.10;;;;;;;6.59;56.80;99706.91;685037;28;1302;-89
2021/12/09 01:40:37;;;;;;;8.70;3.90;;;;;;;6.53;57.20;99693.78;685075;28;1571;-89
2021/12/09 01:40:59;;;;;;;9.50;4.20;;;;;;;6.51;57.04;99700.66;682364;28;1417;-89
2021/12/09 01:41:20;;;;;;;8.15;4.07;;;;;;;6.52;56.96;99703.25;682568;28;1298;-90
2021/12/09 01:42:02;;;;;;;8.40;4.27;;;;;;;6.54;57.14;99706.81;685146;28;1419;-88
2021/12/09 01:42:23;;;;;;;8.02;4.15;;;;;;;6.46;56.88;99700.53;690039;28;1375;-89
2021/12/09 01:42:44;;;;;;;7.38;4.10;;;;;;;6.47;57.22;99697.09;688130;28;1386;-89
2021/12/09 01:43:05;;;;;;;7.65;3.92;;;;;;;6.48;57.13;99706.63;679604;29;1258;-91
2021/12/09 01:43:26;;;;;;;7.03;3.90;;;;;;;6.49;57.04;99708.38;687779;28;1268;-88
2021/12/09 01:43:46;;;;;;;7.30;3.85;;;;;;;6.41;56.80;99696.91;683946;28;1278;-89
2021/12/09 01:44:07;;;;;;;7.40;4.20;;;;;;;6.57;57.27;99714.66;679739;29;1332;-89
2021/12/09 01:44:28;;;;;;;7.13;4.20;;;;;;;6.54;56.84;99701.63;685046;28;1394;-90
2021/12/09 01:44:48;;;;;;;5.88;4.03;;;;;;;6.57;56.97;99706.88;687733;28;1243;-88
2021/12/09 01:45:11;;;;;;;5.57;3.80;;;;;;;6.55;56.86;99693.00;685128;28;1087;-89
2021/12/09 01:45:32;;;;;;;7.03;3.92;;;;;;;6.62;56.76;99706.13;690944;28;1037;-90
2021/12/09 01:46:11;;;;;;;7.03;4.10;;;;;;;6.59;57.03;99699.16;691746;28;1237;-89
2021/12/09 01:46:31;;;;;;;5.40;3.70;;;;;;;6.65;56.88;99707.09;687778;28;1027;-89
2021/12/09 01:46:52;;;;;;;7.05;3.78;;;;;;;6.64;56.87;99702.72;685867;28;1946;-89
2021/12/09 01:47:13;;;;;;;6.07;3.90;;;;;;;6.63;56.74;99694.91;687679;28;1406;-89
2021/12/09 01:47:33;;;;;;;6.95;3.90;;;;;;;6.57;56.93;99706.88;688022;28;1288;-90
2021/12/09 01:47:54;;;;;;;5.47;3.80;;;;;;;6.59;57.09;99704.34;686504;28;1906;-90
2021/12/09 01:48:16;;;;;;;6.95;3.80;;;;;;;6.62;57.15;99713.91;687692;28;1458;-89
2021/12/09 01:48:38;;;;;;;7.70;3.90;;;;;;;6.63;56.78;99700.97;683056;28;1375;-89
2021/12/09 01:49:02;;;;;;;9.60;4.00;;;;;;;6.54;56.79;99699.03;681959;28;1922;-89
2021/12/09 01:49:23;;;;;;;7.85;3.90;;;;;;;6.53;57.26;99699.88;687236;28;1319;-89
2021/12/09 01:49:43;;;;;;;7.27;3.93;;;;;;;6.51;57.30;99704.09;682567;29;1289;-89
2021/12/09 01:50:07;;;;;;;6.10;3.78;;;;;;;6.49;57.13;99705.78;682469;28;1396;-89
2021/12/09 01:50:28;;;;;;;8.35;3.88;;;;;;;6.43;57.19;99697.84;685106;28;1257;-89